sensor_id;sensor_type;location;lat;lon;timestamp;P1;durP1;ratioP1;P2;durP2;ratioP2
31336;SDS011;22846;42.654;23.314;2022-11-23T00:01:31;2.95;;;2.40;;
31336;SDS011;22846;42.654;23.314;2022-11-23T00:03:59;2.88;;;2.42;;
31336;SDS011;22846;42.654;23.314;2022-11-23T00:06:26;4.00;;;2.50;;
31336;SDS011;22846;42.654;23.314;2022-11-23T00:08:52;4.38;;;2.90;;
31336;SDS011;22846;42.654;23.314;2022-11-23T00:11:19;2.50;;;2.10;;
31336;SDS011;22846;42.654;23.314;2022-11-23T00:13:45;3.05;;;2.20;;
31336;SDS011;22846;42.654;23.314;2022-11-23T00:16:12;2.60;;;2.30;;
31336;SDS011;22846;42.654;23.314;2022-11-23T00:18:39;3.15;;;2.53;;
31336;SDS011;22846;42.654;23.314;2022-11-23T00:21:09;4.00;;;2.63;;
31336;SDS011;22846;42.654;23.314;2022-11-23T00:26:04;3.88;;;2.38;;
31336;SDS011;22846;42.654;23.314;2022-11-23T00:28:30;3.47;;;2.10;;
31336;SDS011;22846;42.654;23.314;2022-11-23T00:30:56;3.63;;;2.55;;
31336;SDS011;22846;42.654;23.314;2022-11-23T00:33:21;2.25;;;2.05;;
31336;SDS011;22846;42.654;23.314;2022-11-23T00:35:57;4.53;;;2.22;;
31336;SDS011;22846;42.654;23.314;2022-11-23T00:38:26;4.60;;;2.42;;
31336;SDS011;22846;42.654;23.314;2022-11-23T00:40:59;3.55;;;2.55;;
31336;SDS011;22846;42.654;23.314;2022-11-23T00:43:26;3.33;;;2.42;;
31336;SDS011;22846;42.654;23.314;2022-11-23T00:46:06;2.80;;;2.42;;
31336;SDS011;22846;42.654;23.314;2022-11-23T00:48:34;3.45;;;2.28;;
31336;SDS011;22846;42.654;23.314;2022-11-23T00:51:00;3.72;;;2.58;;
31336;SDS011;22846;42.654;23.314;2022-11-23T00:53:30;3.25;;;2.20;;
31336;SDS011;22846;42.654;23.314;2022-11-23T00:55:56;3.00;;;2.45;;
31336;SDS011;22846;42.654;23.314;2022-11-23T00:58:22;4.18;;;2.30;;
31336;SDS011;22846;42.654;23.314;2022-11-23T01:00:48;2.70;;;2.10;;
31336;SDS011;22846;42.654;23.314;2022-11-23T01:03:13;2.83;;;2.53;;
31336;SDS011;22846;42.654;23.314;2022-11-23T01:05:39;2.60;;;2.15;;
31336;SDS011;22846;42.654;23.314;2022-11-23T01:08:05;4.20;;;2.33;;
31336;SDS011;22846;42.654;23.314;2022-11-23T01:10:31;2.75;;;2.42;;
31336;SDS011;22846;42.654;23.314;2022-11-23T01:12:56;2.53;;;2.17;;
31336;SDS011;22846;42.654;23.314;2022-11-23T01:15:22;2.72;;;2.20;;
31336;SDS011;22846;42.654;23.314;2022-11-23T01:17:48;2.58;;;2.30;;
31336;SDS011;22846;42.654;23.314;2022-11-23T01:20:13;2.92;;;2.33;;
31336;SDS011;22846;42.654;23.314;2022-11-23T01:22:39;3.78;;;2.20;;
31336;SDS011;22846;42.654;23.314;2022-11-23T01:25:04;2.95;;;2.35;;
31336;SDS011;22846;42.654;23.314;2022-11-23T01:27:30;2.22;;;1.98;;
31336;SDS011;22846;42.654;23.314;2022-11-23T01:29:56;2.55;;;2.10;;
31336;SDS011;22846;42.654;23.314;2022-11-23T01:32:21;3.40;;;2.20;;
31336;SDS011;22846;42.654;23.314;2022-11-23T01:34:46;2.50;;;2.05;;
31336;SDS011;22846;42.654;23.314;2022-11-23T01:37:12;2.47;;;2.10;;
31336;SDS011;22846;42.654;23.314;2022-11-23T01:39:37;2.55;;;2.15;;
31336;SDS011;22846;42.654;23.314;2022-11-23T01:42:03;2.53;;;2.00;;
31336;SDS011;22846;42.654;23.314;2022-11-23T01:44:32;2.42;;;2.08;;
31336;SDS011;22846;42.654;23.314;2022-11-23T01:47:00;2.60;;;2.00;;
31336;SDS011;22846;42.654;23.314;2022-11-23T01:49:29;2.45;;;2.20;;
31336;SDS011;22846;42.654;23.314;2022-11-23T01:51:58;2.83;;;2.00;;
31336;SDS011;22846;42.654;23.314;2022-11-23T01:54:29;2.45;;;2.05;;
31336;SDS011;22846;42.654;23.314;2022-11-23T01:57:00;2.38;;;2.15;;
31336;SDS011;22846;42.654;23.314;2022-11-23T01:59:29;2.55;;;2.08;;
31336;SDS011;22846;42.654;23.314;2022-11-23T02:01:57;2.75;;;2.10;;
31336;SDS011;22846;42.654;23.314;2022-11-23T02:04:26;2.25;;;1.90;;
31336;SDS011;22846;42.654;23.314;2022-11-23T02:06:55;2.20;;;1.98;;
31336;SDS011;22846;42.654;23.314;2022-11-23T02:09:21;2.70;;;2.00;;
31336;SDS011;22846;42.654;23.314;2022-11-23T02:11:47;2.95;;;1.83;;
31336;SDS011;22846;42.654;23.314;2022-11-23T02:14:12;2.83;;;2.17;;
31336;SDS011;22846;42.654;23.314;2022-11-23T02:16:38;2.28;;;1.92;;
31336;SDS011;22846;42.654;23.314;2022-11-23T02:19:19;2.58;;;1.88;;
31336;SDS011;22846;42.654;23.314;2022-11-23T02:21:50;2.65;;;2.30;;
31336;SDS011;22846;42.654;23.314;2022-11-23T02:24:25;2.33;;;1.92;;
31336;SDS011;22846;42.654;23.314;2022-11-23T02:26:57;2.40;;;1.88;;
31336;SDS011;22846;42.654;23.314;2022-11-23T02:29:23;2.72;;;1.65;;
31336;SDS011;22846;42.654;23.314;2022-11-23T02:31:51;2.10;;;1.88;;
31336;SDS011;22846;42.654;23.314;2022-11-23T02:34:17;2.38;;;1.70;;
31336;SDS011;22846;42.654;23.314;2022-11-23T02:36:47;2.35;;;1.98;;
31336;SDS011;22846;42.654;23.314;2022-11-23T02:39:20;2.05;;;1.85;;
31336;SDS011;22846;42.654;23.314;2022-11-23T02:41:51;2.90;;;2.10;;
31336;SDS011;22846;42.654;23.314;2022-11-23T02:44:38;2.38;;;2.13;;
31336;SDS011;22846;42.654;23.314;2022-11-23T02:47:10;2.40;;;1.90;;
31336;SDS011;22846;42.654;23.314;2022-11-23T02:49:36;2.45;;;2.00;;
31336;SDS011;22846;42.654;23.314;2022-11-23T02:52:03;2.17;;;1.90;;
31336;SDS011;22846;42.654;23.314;2022-11-23T02:54:29;2.55;;;2.20;;
31336;SDS011;22846;42.654;23.314;2022-11-23T02:56:54;2.47;;;1.90;;
31336;SDS011;22846;42.654;23.314;2022-11-23T02:59:20;2.35;;;2.00;;
31336;SDS011;22846;42.654;23.314;2022-11-23T03:01:46;2.83;;;1.90;;
31336;SDS011;22846;42.654;23.314;2022-11-23T03:04:11;2.05;;;1.83;;
31336;SDS011;22846;42.654;23.314;2022-11-23T03:06:37;1.92;;;1.73;;
31336;SDS011;22846;42.654;23.314;2022-11-23T03:09:02;2.75;;;2.10;;
31336;SDS011;22846;42.654;23.314;2022-11-23T03:11:28;2.00;;;1.77;;
31336;SDS011;22846;42.654;23.314;2022-11-23T03:13:53;2.63;;;1.98;;
31336;SDS011;22846;42.654;23.314;2022-11-23T03:16:19;2.10;;;1.77;;
31336;SDS011;22846;42.654;23.314;2022-11-23T03:18:44;2.50;;;2.15;;
31336;SDS011;22846;42.654;23.314;2022-11-23T03:21:09;2.25;;;1.85;;
31336;SDS011;22846;42.654;23.314;2022-11-23T03:23:35;2.10;;;1.83;;
31336;SDS011;22846;42.654;23.314;2022-11-23T03:26:01;2.97;;;2.08;;
31336;SDS011;22846;42.654;23.314;2022-11-23T03:28:27;2.13;;;1.80;;
31336;SDS011;22846;42.654;23.314;2022-11-23T03:30:52;2.80;;;1.80;;
31336;SDS011;22846;42.654;23.314;2022-11-23T03:33:18;2.05;;;1.73;;
31336;SDS011;22846;42.654;23.314;2022-11-23T03:35:44;2.88;;;2.05;;
31336;SDS011;22846;42.654;23.314;2022-11-23T03:38:10;2.10;;;1.73;;
31336;SDS011;22846;42.654;23.314;2022-11-23T03:40:36;2.10;;;1.90;;
31336;SDS011;22846;42.654;23.314;2022-11-23T03:43:01;1.90;;;1.73;;
31336;SDS011;22846;42.654;23.314;2022-11-23T03:45:27;2.00;;;1.80;;
31336;SDS011;22846;42.654;23.314;2022-11-23T03:47:52;2.28;;;1.70;;
31336;SDS011;22846;42.654;23.314;2022-11-23T03:50:18;2.85;;;1.67;;
31336;SDS011;22846;42.654;23.314;2022-11-23T03:52:43;1.95;;;1.75;;
31336;SDS011;22846;42.654;23.314;2022-11-23T03:55:09;2.92;;;2.00;;
31336;SDS011;22846;42.654;23.314;2022-11-23T03:57:34;3.20;;;1.75;;
31336;SDS011;22846;42.654;23.314;2022-11-23T04:00:00;1.95;;;1.70;;
31336;SDS011;22846;42.654;23.314;2022-11-23T04:02:26;1.85;;;1.65;;
31336;SDS011;22846;42.654;23.314;2022-11-23T04:04:51;1.85;;;1.70;;
31336;SDS011;22846;42.654;23.314;2022-11-23T04:07:16;2.05;;;1.85;;
31336;SDS011;22846;42.654;23.314;2022-11-23T04:09:42;2.85;;;1.98;;
31336;SDS011;22846;42.654;23.314;2022-11-23T04:12:08;2.10;;;1.90;;
31336;SDS011;22846;42.654;23.314;2022-11-23T04:14:34;2.75;;;2.20;;
31336;SDS011;22846;42.654;23.314;2022-11-23T04:16:59;3.05;;;2.42;;
31336;SDS011;22846;42.654;23.314;2022-11-23T04:19:28;3.05;;;2.20;;
31336;SDS011;22846;42.654;23.314;2022-11-23T04:21:54;2.65;;;2.40;;
31336;SDS011;22846;42.654;23.314;2022-11-23T04:24:19;2.35;;;2.00;;
31336;SDS011;22846;42.654;23.314;2022-11-23T04:26:45;2.92;;;2.05;;
31336;SDS011;22846;42.654;23.314;2022-11-23T04:29:10;2.72;;;1.80;;
31336;SDS011;22846;42.654;23.314;2022-11-23T04:31:36;2.25;;;1.75;;
31336;SDS011;22846;42.654;23.314;2022-11-23T04:34:01;2.08;;;1.88;;
31336;SDS011;22846;42.654;23.314;2022-11-23T04:36:27;2.72;;;2.00;;
31336;SDS011;22846;42.654;23.314;2022-11-23T04:38:52;1.92;;;1.65;;
31336;SDS011;22846;42.654;23.314;2022-11-23T04:41:18;1.95;;;1.80;;
31336;SDS011;22846;42.654;23.314;2022-11-23T04:43:43;2.70;;;1.88;;
31336;SDS011;22846;42.654;23.314;2022-11-23T04:46:11;2.10;;;1.90;;
31336;SDS011;22846;42.654;23.314;2022-11-23T04:48:37;2.42;;;1.80;;
31336;SDS011;22846;42.654;23.314;2022-11-23T04:51:02;2.40;;;1.50;;
31336;SDS011;22846;42.654;23.314;2022-11-23T04:53:28;4.35;;;2.00;;
31336;SDS011;22846;42.654;23.314;2022-11-23T04:55:53;2.03;;;1.83;;
31336;SDS011;22846;42.654;23.314;2022-11-23T04:58:18;5.88;;;2.78;;
31336;SDS011;22846;42.654;23.314;2022-11-23T05:00:44;8.82;;;2.25;;
31336;SDS011;22846;42.654;23.314;2022-11-23T05:03:09;9.65;;;2.72;;
31336;SDS011;22846;42.654;23.314;2022-11-23T05:05:38;7.32;;;2.67;;
31336;SDS011;22846;42.654;23.314;2022-11-23T05:08:04;8.48;;;2.70;;
31336;SDS011;22846;42.654;23.314;2022-11-23T05:10:30;10.30;;;2.55;;
31336;SDS011;22846;42.654;23.314;2022-11-23T05:12:56;10.20;;;2.67;;
31336;SDS011;22846;42.654;23.314;2022-11-23T05:15:21;7.63;;;2.58;;
31336;SDS011;22846;42.654;23.314;2022-11-23T05:17:47;8.60;;;2.72;;
31336;SDS011;22846;42.654;23.314;2022-11-23T05:20:12;5.60;;;2.40;;
31336;SDS011;22846;42.654;23.314;2022-11-23T05:22:37;5.70;;;2.42;;
31336;SDS011;22846;42.654;23.314;2022-11-23T05:25:03;7.63;;;4.10;;
31336;SDS011;22846;42.654;23.314;2022-11-23T05:27:29;10.45;;;3.85;;
31336;SDS011;22846;42.654;23.314;2022-11-23T05:29:54;13.13;;;6.03;;
31336;SDS011;22846;42.654;23.314;2022-11-23T05:32:20;18.92;;;8.02;;
31336;SDS011;22846;42.654;23.314;2022-11-23T05:34:45;14.05;;;7.45;;
31336;SDS011;22846;42.654;23.314;2022-11-23T05:37:10;12.88;;;6.75;;
31336;SDS011;22846;42.654;23.314;2022-11-23T05:39:36;13.20;;;6.57;;
31336;SDS011;22846;42.654;23.314;2022-11-23T05:42:01;13.45;;;6.97;;
31336;SDS011;22846;42.654;23.314;2022-11-23T05:44:27;14.77;;;6.50;;
31336;SDS011;22846;42.654;23.314;2022-11-23T05:46:52;10.77;;;5.82;;
31336;SDS011;22846;42.654;23.314;2022-11-23T05:49:17;13.60;;;5.50;;
31336;SDS011;22846;42.654;23.314;2022-11-23T05:51:43;9.93;;;5.22;;
31336;SDS011;22846;42.654;23.314;2022-11-23T05:54:08;10.80;;;5.28;;
31336;SDS011;22846;42.654;23.314;2022-11-23T05:56:34;10.88;;;5.10;;
31336;SDS011;22846;42.654;23.314;2022-11-23T05:58:59;10.13;;;4.93;;
31336;SDS011;22846;42.654;23.314;2022-11-23T06:01:24;7.72;;;4.70;;
31336;SDS011;22846;42.654;23.314;2022-11-23T06:03:50;7.80;;;4.75;;
31336;SDS011;22846;42.654;23.314;2022-11-23T06:06:15;8.45;;;4.40;;
31336;SDS011;22846;42.654;23.314;2022-11-23T06:08:41;11.60;;;4.72;;
31336;SDS011;22846;42.654;23.314;2022-11-23T06:11:06;9.57;;;4.65;;
31336;SDS011;22846;42.654;23.314;2022-11-23T06:13:33;9.77;;;4.22;;
31336;SDS011;22846;42.654;23.314;2022-11-23T06:15:58;9.30;;;4.60;;
31336;SDS011;22846;42.654;23.314;2022-11-23T06:18:24;8.00;;;3.97;;
31336;SDS011;22846;42.654;23.314;2022-11-23T06:20:49;10.00;;;4.63;;
31336;SDS011;22846;42.654;23.314;2022-11-23T06:23:14;9.48;;;4.28;;
31336;SDS011;22846;42.654;23.314;2022-11-23T06:25:40;9.25;;;3.90;;
31336;SDS011;22846;42.654;23.314;2022-11-23T06:28:05;9.65;;;3.97;;
31336;SDS011;22846;42.654;23.314;2022-11-23T06:30:31;6.13;;;3.97;;
31336;SDS011;22846;42.654;23.314;2022-11-23T06:32:57;5.82;;;3.78;;
31336;SDS011;22846;42.654;23.314;2022-11-23T06:35:26;5.90;;;3.60;;
31336;SDS011;22846;42.654;23.314;2022-11-23T06:37:51;5.95;;;3.58;;
31336;SDS011;22846;42.654;23.314;2022-11-23T06:40:18;7.05;;;3.53;;
31336;SDS011;22846;42.654;23.314;2022-11-23T06:42:44;8.27;;;3.55;;
31336;SDS011;22846;42.654;23.314;2022-11-23T06:45:10;6.60;;;3.63;;
31336;SDS011;22846;42.654;23.314;2022-11-23T06:47:35;5.68;;;3.60;;
31336;SDS011;22846;42.654;23.314;2022-11-23T06:50:01;5.82;;;3.55;;
31336;SDS011;22846;42.654;23.314;2022-11-23T06:52:26;6.05;;;3.40;;
31336;SDS011;22846;42.654;23.314;2022-11-23T06:54:52;4.65;;;3.35;;
31336;SDS011;22846;42.654;23.314;2022-11-23T06:57:17;9.00;;;3.20;;
31336;SDS011;22846;42.654;23.314;2022-11-23T06:59:43;6.65;;;3.00;;
31336;SDS011;22846;42.654;23.314;2022-11-23T07:02:09;5.80;;;3.38;;
31336;SDS011;22846;42.654;23.314;2022-11-23T07:04:35;6.75;;;3.65;;
31336;SDS011;22846;42.654;23.314;2022-11-23T07:07:01;6.75;;;2.92;;
31336;SDS011;22846;42.654;23.314;2022-11-23T07:09:26;6.07;;;3.20;;
31336;SDS011;22846;42.654;23.314;2022-11-23T07:11:52;6.03;;;3.25;;
31336;SDS011;22846;42.654;23.314;2022-11-23T07:14:18;4.38;;;2.78;;
31336;SDS011;22846;42.654;23.314;2022-11-23T07:16:43;5.25;;;2.75;;
31336;SDS011;22846;42.654;23.314;2022-11-23T07:19:08;4.95;;;2.53;;
31336;SDS011;22846;42.654;23.314;2022-11-23T07:21:34;4.55;;;3.17;;
31336;SDS011;22846;42.654;23.314;2022-11-23T07:23:59;5.18;;;3.03;;
31336;SDS011;22846;42.654;23.314;2022-11-23T07:26:25;3.45;;;2.72;;
31336;SDS011;22846;42.654;23.314;2022-11-23T07:28:50;3.95;;;2.67;;
31336;SDS011;22846;42.654;23.314;2022-11-23T07:31:15;4.10;;;2.80;;
31336;SDS011;22846;42.654;23.314;2022-11-23T07:33:47;5.25;;;3.10;;
31336;SDS011;22846;42.654;23.314;2022-11-23T07:36:13;3.97;;;3.00;;
31336;SDS011;22846;42.654;23.314;2022-11-23T07:38:39;4.18;;;2.80;;
31336;SDS011;22846;42.654;23.314;2022-11-23T07:41:05;4.13;;;2.88;;
31336;SDS011;22846;42.654;23.314;2022-11-23T07:43:30;5.97;;;3.05;;
31336;SDS011;22846;42.654;23.314;2022-11-23T07:45:55;4.18;;;2.70;;
31336;SDS011;22846;42.654;23.314;2022-11-23T07:48:21;3.80;;;2.85;;
31336;SDS011;22846;42.654;23.314;2022-11-23T07:50:47;3.55;;;3.00;;
31336;SDS011;22846;42.654;23.314;2022-11-23T07:53:15;5.07;;;2.58;;
31336;SDS011;22846;42.654;23.314;2022-11-23T07:55:41;4.97;;;2.63;;
31336;SDS011;22846;42.654;23.314;2022-11-23T07:58:07;3.97;;;2.78;;
31336;SDS011;22846;42.654;23.314;2022-11-23T08:00:33;4.28;;;3.00;;
31336;SDS011;22846;42.654;23.314;2022-11-23T08:02:59;4.18;;;2.70;;
31336;SDS011;22846;42.654;23.314;2022-11-23T08:05:24;4.53;;;3.08;;
31336;SDS011;22846;42.654;23.314;2022-11-23T08:07:50;4.30;;;2.88;;
31336;SDS011;22846;42.654;23.314;2022-11-23T08:10:16;5.32;;;2.97;;
31336;SDS011;22846;42.654;23.314;2022-11-23T08:12:41;3.45;;;2.85;;
31336;SDS011;22846;42.654;23.314;2022-11-23T08:15:07;4.13;;;3.00;;
31336;SDS011;22846;42.654;23.314;2022-11-23T08:17:32;3.45;;;2.70;;
31336;SDS011;22846;42.654;23.314;2022-11-23T08:19:58;3.58;;;2.60;;
31336;SDS011;22846;42.654;23.314;2022-11-23T08:22:24;4.50;;;3.10;;
31336;SDS011;22846;42.654;23.314;2022-11-23T08:24:51;5.28;;;2.90;;
31336;SDS011;22846;42.654;23.314;2022-11-23T08:27:16;3.55;;;2.55;;
31336;SDS011;22846;42.654;23.314;2022-11-23T08:29:41;4.20;;;3.13;;
31336;SDS011;22846;42.654;23.314;2022-11-23T08:32:07;4.22;;;2.78;;
31336;SDS011;22846;42.654;23.314;2022-11-23T08:34:32;3.95;;;2.80;;
31336;SDS011;22846;42.654;23.314;2022-11-23T08:36:58;2.97;;;2.58;;
31336;SDS011;22846;42.654;23.314;2022-11-23T08:39:23;3.05;;;2.75;;
31336;SDS011;22846;42.654;23.314;2022-11-23T08:41:48;4.50;;;2.90;;
31336;SDS011;22846;42.654;23.314;2022-11-23T08:44:14;3.15;;;2.53;;
31336;SDS011;22846;42.654;23.314;2022-11-23T08:46:39;3.88;;;2.72;;
31336;SDS011;22846;42.654;23.314;2022-11-23T08:49:05;3.60;;;2.72;;
31336;SDS011;22846;42.654;23.314;2022-11-23T08:51:31;4.53;;;3.00;;
31336;SDS011;22846;42.654;23.314;2022-11-23T08:53:57;3.95;;;2.80;;
31336;SDS011;22846;42.654;23.314;2022-11-23T08:56:22;4.00;;;2.83;;
31336;SDS011;22846;42.654;23.314;2022-11-23T08:58:48;4.25;;;2.90;;
31336;SDS011;22846;42.654;23.314;2022-11-23T09:01:14;4.68;;;2.88;;
31336;SDS011;22846;42.654;23.314;2022-11-23T09:03:41;4.43;;;3.08;;
31336;SDS011;22846;42.654;23.314;2022-11-23T09:06:07;2.72;;;2.40;;
31336;SDS011;22846;42.654;23.314;2022-11-23T09:08:33;2.75;;;2.45;;
31336;SDS011;22846;42.654;23.314;2022-11-23T09:11:04;3.78;;;2.60;;
31336;SDS011;22846;42.654;23.314;2022-11-23T09:13:31;4.10;;;2.75;;
31336;SDS011;22846;42.654;23.314;2022-11-23T09:16:00;4.10;;;2.67;;
31336;SDS011;22846;42.654;23.314;2022-11-23T09:18:26;3.75;;;2.90;;
31336;SDS011;22846;42.654;23.314;2022-11-23T09:20:54;3.10;;;2.38;;
31336;SDS011;22846;42.654;23.314;2022-11-23T09:23:21;2.55;;;2.30;;
31336;SDS011;22846;42.654;23.314;2022-11-23T09:25:47;3.92;;;3.00;;
31336;SDS011;22846;42.654;23.314;2022-11-23T09:28:14;3.33;;;2.85;;
31336;SDS011;22846;42.654;23.314;2022-11-23T09:30:40;4.00;;;2.72;;
31336;SDS011;22846;42.654;23.314;2022-11-23T09:33:06;3.25;;;2.47;;
31336;SDS011;22846;42.654;23.314;2022-11-23T09:35:32;3.85;;;2.80;;
31336;SDS011;22846;42.654;23.314;2022-11-23T09:37:58;5.57;;;3.10;;
31336;SDS011;22846;42.654;23.314;2022-11-23T09:40:42;4.45;;;2.88;;
31336;SDS011;22846;42.654;23.314;2022-11-23T09:43:27;3.58;;;2.72;;
31336;SDS011;22846;42.654;23.314;2022-11-23T09:46:01;3.83;;;2.60;;
31336;SDS011;22846;42.654;23.314;2022-11-23T09:48:47;3.17;;;2.60;;
31336;SDS011;22846;42.654;23.314;2022-11-23T09:51:36;3.05;;;2.65;;
31336;SDS011;22846;42.654;23.314;2022-11-23T09:54:04;3.75;;;2.80;;
31336;SDS011;22846;42.654;23.314;2022-11-23T09:56:35;3.13;;;2.72;;
31336;SDS011;22846;42.654;23.314;2022-11-23T09:59:10;3.70;;;2.72;;
31336;SDS011;22846;42.654;23.314;2022-11-23T10:01:42;3.05;;;2.63;;
31336;SDS011;22846;42.654;23.314;2022-11-23T10:04:10;3.58;;;2.70;;
31336;SDS011;22846;42.654;23.314;2022-11-23T10:06:41;3.25;;;2.50;;
31336;SDS011;22846;42.654;23.314;2022-11-23T10:09:17;3.13;;;2.53;;
31336;SDS011;22846;42.654;23.314;2022-11-23T10:12:16;3.85;;;2.60;;
31336;SDS011;22846;42.654;23.314;2022-11-23T10:25:24;4.10;;;2.78;;
31336;SDS011;22846;42.654;23.314;2022-11-23T10:27:55;3.35;;;2.60;;
31336;SDS011;22846;42.654;23.314;2022-11-23T10:30:25;4.68;;;2.53;;
31336;SDS011;22846;42.654;23.314;2022-11-23T10:32:55;3.28;;;2.28;;
31336;SDS011;22846;42.654;23.314;2022-11-23T10:35:31;3.50;;;2.47;;
31336;SDS011;22846;42.654;23.314;2022-11-23T10:40:37;3.70;;;2.97;;
31336;SDS011;22846;42.654;23.314;2022-11-23T10:43:14;3.08;;;2.45;;
31336;SDS011;22846;42.654;23.314;2022-11-23T10:45:44;3.78;;;2.83;;
31336;SDS011;22846;42.654;23.314;2022-11-23T10:48:12;3.03;;;2.45;;
31336;SDS011;22846;42.654;23.314;2022-11-23T10:51:21;3.92;;;2.55;;
31336;SDS011;22846;42.654;23.314;2022-11-23T10:53:52;4.40;;;2.67;;
31336;SDS011;22846;42.654;23.314;2022-11-23T10:56:22;3.65;;;2.88;;
31336;SDS011;22846;42.654;23.314;2022-11-23T10:58:48;3.80;;;2.50;;
31336;SDS011;22846;42.654;23.314;2022-11-23T11:01:15;3.10;;;2.28;;
31336;SDS011;22846;42.654;23.314;2022-11-23T11:03:51;3.55;;;2.33;;
31336;SDS011;22846;42.654;23.314;2022-11-23T11:06:21;3.05;;;2.47;;
31336;SDS011;22846;42.654;23.314;2022-11-23T11:08:59;2.53;;;2.25;;
31336;SDS011;22846;42.654;23.314;2022-11-23T11:11:27;2.97;;;2.42;;
31336;SDS011;22846;42.654;23.314;2022-11-23T11:16:47;3.33;;;2.45;;
31336;SDS011;22846;42.654;23.314;2022-11-23T11:19:25;4.28;;;2.10;;
31336;SDS011;22846;42.654;23.314;2022-11-23T11:21:54;3.85;;;2.72;;
31336;SDS011;22846;42.654;23.314;2022-11-23T11:24:22;3.63;;;2.60;;
31336;SDS011;22846;42.654;23.314;2022-11-23T11:27:01;2.88;;;2.35;;
31336;SDS011;22846;42.654;23.314;2022-11-23T11:29:45;2.40;;;2.20;;
31336;SDS011;22846;42.654;23.314;2022-11-23T11:34:51;4.50;;;2.58;;
31336;SDS011;22846;42.654;23.314;2022-11-23T11:37:31;3.83;;;2.67;;
31336;SDS011;22846;42.654;23.314;2022-11-23T11:42:55;3.40;;;2.25;;
31336;SDS011;22846;42.654;23.314;2022-11-23T11:45:35;2.40;;;2.13;;
31336;SDS011;22846;42.654;23.314;2022-11-23T11:56:37;2.30;;;2.10;;
31336;SDS011;22846;42.654;23.314;2022-11-23T12:04:42;2.95;;;2.40;;
31336;SDS011;22846;42.654;23.314;2022-11-23T12:07:20;2.65;;;2.30;;
31336;SDS011;22846;42.654;23.314;2022-11-23T12:10:28;2.92;;;2.38;;
31336;SDS011;22846;42.654;23.314;2022-11-23T12:12:50;2.65;;;2.22;;
31336;SDS011;22846;42.654;23.314;2022-11-23T12:15:19;4.13;;;2.35;;
31336;SDS011;22846;42.654;23.314;2022-11-23T12:17:56;2.60;;;2.28;;
31336;SDS011;22846;42.654;23.314;2022-11-23T12:33:53;2.17;;;1.98;;
31336;SDS011;22846;42.654;23.314;2022-11-23T12:40:02;3.38;;;2.30;;
31336;SDS011;22846;42.654;23.314;2022-11-23T12:44:54;3.78;;;2.70;;
31336;SDS011;22846;42.654;23.314;2022-11-23T12:50:44;3.58;;;2.40;;
31336;SDS011;22846;42.654;23.314;2022-11-23T12:55:54;3.25;;;2.30;;
31336;SDS011;22846;42.654;23.314;2022-11-23T12:58:37;3.38;;;2.30;;
31336;SDS011;22846;42.654;23.314;2022-11-23T13:01:12;4.40;;;2.75;;
31336;SDS011;22846;42.654;23.314;2022-11-23T13:14:38;2.85;;;2.33;;
31336;SDS011;22846;42.654;23.314;2022-11-23T13:22:28;3.38;;;2.35;;
31336;SDS011;22846;42.654;23.314;2022-11-23T13:27:57;4.05;;;1.85;;
31336;SDS011;22846;42.654;23.314;2022-11-23T13:30:30;3.05;;;2.10;;
31336;SDS011;22846;42.654;23.314;2022-11-23T13:33:02;2.88;;;2.03;;
31336;SDS011;22846;42.654;23.314;2022-11-23T13:35:52;2.13;;;1.80;;
31336;SDS011;22846;42.654;23.314;2022-11-23T13:38:23;2.83;;;2.20;;
31336;SDS011;22846;42.654;23.314;2022-11-23T13:40:50;3.92;;;1.92;;
31336;SDS011;22846;42.654;23.314;2022-11-23T13:43:27;2.25;;;1.70;;
31336;SDS011;22846;42.654;23.314;2022-11-23T13:48:40;2.80;;;2.03;;
31336;SDS011;22846;42.654;23.314;2022-11-23T13:51:07;3.85;;;1.90;;
31336;SDS011;22846;42.654;23.314;2022-11-23T13:56:20;2.60;;;1.50;;
31336;SDS011;22846;42.654;23.314;2022-11-23T14:04:28;3.85;;;2.00;;
31336;SDS011;22846;42.654;23.314;2022-11-23T14:09:28;3.75;;;1.95;;
31336;SDS011;22846;42.654;23.314;2022-11-23T14:15:19;2.88;;;1.92;;
31336;SDS011;22846;42.654;23.314;2022-11-23T14:33:55;3.08;;;1.83;;
31336;SDS011;22846;42.654;23.314;2022-11-23T14:36:40;2.17;;;1.95;;
31336;SDS011;22846;42.654;23.314;2022-11-23T14:39:21;2.40;;;1.63;;
31336;SDS011;22846;42.654;23.314;2022-11-23T14:42:13;3.67;;;1.80;;
31336;SDS011;22846;42.654;23.314;2022-11-23T14:44:42;2.47;;;1.92;;
31336;SDS011;22846;42.654;23.314;2022-11-23T14:47:09;1.90;;;1.60;;
31336;SDS011;22846;42.654;23.314;2022-11-23T14:49:36;2.65;;;1.92;;
31336;SDS011;22846;42.654;23.314;2022-11-23T14:52:12;3.63;;;1.70;;
31336;SDS011;22846;42.654;23.314;2022-11-23T14:57:18;2.50;;;2.00;;
31336;SDS011;22846;42.654;23.314;2022-11-23T14:59:49;3.22;;;2.20;;
31336;SDS011;22846;42.654;23.314;2022-11-23T15:02:20;2.30;;;1.60;;
31336;SDS011;22846;42.654;23.314;2022-11-23T15:04:51;2.67;;;2.00;;
31336;SDS011;22846;42.654;23.314;2022-11-23T15:07:47;2.63;;;1.77;;
31336;SDS011;22846;42.654;23.314;2022-11-23T15:13:20;1.60;;;1.50;;
31336;SDS011;22846;42.654;23.314;2022-11-23T15:15:51;2.40;;;1.60;;
31336;SDS011;22846;42.654;23.314;2022-11-23T15:18:29;3.47;;;1.77;;
31336;SDS011;22846;42.654;23.314;2022-11-23T15:21:00;2.42;;;1.60;;
31336;SDS011;22846;42.654;23.314;2022-11-23T15:23:40;2.83;;;1.80;;
31336;SDS011;22846;42.654;23.314;2022-11-23T15:26:16;2.60;;;1.73;;
31336;SDS011;22846;42.654;23.314;2022-11-23T15:28:44;2.78;;;1.75;;
31336;SDS011;22846;42.654;23.314;2022-11-23T15:34:01;2.05;;;1.55;;
31336;SDS011;22846;42.654;23.314;2022-11-23T15:36:30;2.35;;;1.63;;
31336;SDS011;22846;42.654;23.314;2022-11-23T15:38:58;1.77;;;1.50;;
31336;SDS011;22846;42.654;23.314;2022-11-23T15:41:26;2.53;;;1.90;;
31336;SDS011;22846;42.654;23.314;2022-11-23T15:43:57;3.30;;;1.77;;
31336;SDS011;22846;42.654;23.314;2022-11-23T15:46:24;3.55;;;1.75;;
31336;SDS011;22846;42.654;23.314;2022-11-23T15:48:53;1.73;;;1.27;;
31336;SDS011;22846;42.654;23.314;2022-11-23T15:51:38;1.75;;;1.45;;
31336;SDS011;22846;42.654;23.314;2022-11-23T15:54:10;2.83;;;1.90;;
31336;SDS011;22846;42.654;23.314;2022-11-23T15:56:42;2.40;;;1.45;;
31336;SDS011;22846;42.654;23.314;2022-11-23T16:02:20;1.77;;;1.42;;
31336;SDS011;22846;42.654;23.314;2022-11-23T16:04:46;1.70;;;1.27;;
31336;SDS011;22846;42.654;23.314;2022-11-23T16:09:46;1.83;;;1.40;;
31336;SDS011;22846;42.654;23.314;2022-11-23T16:12:24;3.00;;;1.40;;
31336;SDS011;22846;42.654;23.314;2022-11-23T16:14:52;2.05;;;1.27;;
31336;SDS011;22846;42.654;23.314;2022-11-23T16:17:20;3.08;;;1.40;;
31336;SDS011;22846;42.654;23.314;2022-11-23T16:19:51;1.55;;;1.30;;
31336;SDS011;22846;42.654;23.314;2022-11-23T16:24:50;2.47;;;1.40;;
31336;SDS011;22846;42.654;23.314;2022-11-23T16:27:22;1.90;;;1.30;;
31336;SDS011;22846;42.654;23.314;2022-11-23T16:29:49;1.90;;;1.25;;
31336;SDS011;22846;42.654;23.314;2022-11-23T16:32:23;1.60;;;1.23;;
31336;SDS011;22846;42.654;23.314;2022-11-23T16:34:49;1.73;;;1.10;;
31336;SDS011;22846;42.654;23.314;2022-11-23T16:37:15;2.63;;;1.55;;
31336;SDS011;22846;42.654;23.314;2022-11-23T16:39:41;1.58;;;1.30;;
31336;SDS011;22846;42.654;23.314;2022-11-23T16:42:08;1.40;;;1.20;;
31336;SDS011;22846;42.654;23.314;2022-11-23T16:44:39;1.33;;;1.20;;
31336;SDS011;22846;42.654;23.314;2022-11-23T16:47:37;2.72;;;1.38;;
31336;SDS011;22846;42.654;23.314;2022-11-23T16:49:56;4.57;;;1.58;;
31336;SDS011;22846;42.654;23.314;2022-11-23T16:52:22;3.15;;;1.40;;
31336;SDS011;22846;42.654;23.314;2022-11-23T16:54:48;3.42;;;1.13;;